Copper Harbor, MI

6:59 PM EST on December 03, 2016 (GMT -0500)
Eagle Harbor | | Change Station

Elev 75 ft 47.46 °N, 88.16 °W | Updated 12 seconds ago

Overcast
Overcast
31.9 °F
Feels Like 32 °F
N
0.0
Wind Variable Wind from ENE

Today
High -- | Low -- °F
--% Chance of Precip.
Yesterday
High -- | Low -- °F
Precip. -- in
Pressure 30.25 in
Visibility 10.0 miles
Clouds Overcast 4200 ft
Windchill 32 °F
Dew Point 30 °F
Humidity 93%
Rainfall 0.02 in
Snow Depth Not available.
8:21 AM 5:01 PM
Waxing Crescent, 18% visible
METAR KCMX 032353Z AUTO 21004KT 10SM OVC042 00/M03 A3020 RMK AO2 SLP242 60000 T00001028 10006 20000 58006
Pressure 30.25 in
Visibility 10.0 miles
Clouds Overcast 4200 ft
Windchill 32 °F
Dew Point 30 °F
Humidity 93%
Rainfall 0.02 in
Snow Depth Not available.
8:21 AM 5:01 PM
Waxing Crescent, 18% visible
METAR KCMX 032353Z AUTO 21004KT 10SM OVC042 00/M03 A3020 RMK AO2 SLP242 60000 T00001028 10006 20000 58006

10-Day Weather Forecast

Almanac

Astronomy

Dec. 03, 2016 Rise Set
Actual Time
Civil Twilight
Nautical Twilight
Astronomical Twilight
Moon
Length of Visible Light
Length of Day
Tomorrow will be .
, % of the Moon is Illuminated

Today's Extremes

State Highs State Lows

Community

WunderPhotos

Upload Photos

1,955,536 photos uploaded!

WunderBlog® & News

Nearby

Air Quality

  Air Quality AQ Index Pollutant
Not available.

Snow Depth

Station Depth Elevation

Earthquake Activity

City Distance Mag. Time & Date
Minimum magnitude displayed is 2.5.

Coastal Water Temperatures

Place Temperature

Stations

Nearby Weather Stations

Station Location Temp. Windchill Dew Point Humidity Wind Precip. Elev Updated Type
                   

Watches & Warnings

There are currently no watches in effect.